Notice: Undefined index: language in /home/u232659314/public_html/vam/index.php on line 31
Pluna Virtual

METAR AND TAF INFORMATION
METAR FOR SADF
ADDS - METARS form results

(0204 UTC 25 March 2019)
Data provider http://aviationweather.gov/metar/data/
 
Forecast for: SADF (SAN FERNANDO , AR)
Text: TAF SADF 242300Z 2500/2524 20010KT CAVOK TX23/2519Z TN11/2510Z
Forecast period: 0000 UTC 25 March 2019 to 0000 UTC 26 March 2019
Forecast type: FROM: standard forecast or significant change
Winds: from the SSW (200 degrees) at 12 MPH (10 knots; 5.1 m/s)
Visibility: 6 or more miles 10+ km)
Ceiling: unknown
Clouds: missing
Weather: no significant weather forecast for this period

AIRPORT MAP

RUNWAY INFORMATION
Runway 5 Runway length 5909 ft Runway width 98 ft
Runway elevation 10 ft Runway displaced threshold 0 ft Runway heading 44
Runway 23 Runway length 5909 ft Runway width 98 ft
Runway elevation 10 ft Runway displaced threshold 0 ft Runway heading 224

AIRPORT FREQUENCIES
Type GND Name GND Frequency 121.65 MHZ
Type TWR Name FERNANDO T Frequency 120.7 MHZ

AIRPORT NEAR NAVIGATION AIDS
Type VOR-DME Name San Fernando Frequency 114400 KHZ